Time;durP1;ratioP1;P1;durP2;ratioP2;P2;SDS_P1;SDS_P2;PMS_P1;PMS_P2;Temp;Humidity;BMP_temperature;BMP_pressure;BME280_temperature;BME280_humidity;BME280_pressure;Samples;Min_cycle;Max_cycle;Signal;HPM_P1;HPM_P2
2022/10/19 00:01:05;;;;;;;7.63;6.57;;;;;;;6.82;nan;95687.00;5093112;27;20204;-72
2022/10/19 00:03:32;;;;;;;10.35;6.20;;;;;;;6.79;nan;95685.34;5095229;27;20204;-71
2022/10/19 00:06:01;;;;;;;9.18;6.40;;;;;;;6.64;nan;95680.44;5095708;27;20193;-71
2022/10/19 00:08:28;;;;;;;7.90;6.32;;;;;;;6.75;nan;95688.72;5095748;27;20197;-73
2022/10/19 00:10:54;;;;;;;14.73;7.15;;;;;;;6.58;nan;95682.16;5096314;27;20488;-71
2022/10/19 00:13:21;;;;;;;5.93;5.43;;;;;;;6.56;nan;95679.63;5096320;27;20645;-71
2022/10/19 00:15:48;;;;;;;8.00;5.50;;;;;;;6.35;nan;95679.81;5094379;27;20201;-72
2022/10/19 00:18:14;;;;;;;11.02;5.93;;;;;;;6.20;nan;95672.34;5094512;27;20554;-70
2022/10/19 00:20:41;;;;;;;7.28;6.10;;;;;;;6.30;nan;95666.38;5094129;27;20747;-69
2022/10/19 00:23:09;;;;;;;7.20;6.32;;;;;;;6.45;nan;95668.78;5094798;27;20925;-71
2022/10/19 00:25:37;;;;;;;7.25;6.30;;;;;;;6.54;nan;95663.66;5093512;27;20263;-72
2022/10/19 00:28:04;;;;;;;11.25;7.57;;;;;;;6.47;nan;95659.50;5093527;27;20213;-72
2022/10/19 00:30:31;;;;;;;11.15;6.90;;;;;;;6.44;nan;95651.94;5094294;27;20205;-71
2022/10/19 00:32:58;;;;;;;13.10;6.95;;;;;;;6.47;nan;95647.72;5092860;27;20229;-71
2022/10/19 00:35:24;;;;;;;11.68;7.10;;;;;;;6.36;nan;95648.66;5094324;27;20216;-71
2022/10/19 00:37:51;;;;;;;9.55;7.13;;;;;;;6.33;nan;95643.66;5093527;27;20270;-71
2022/10/19 00:40:19;;;;;;;12.27;7.47;;;;;;;6.71;nan;95631.50;5093932;27;20201;-72
2022/10/19 00:42:46;;;;;;;7.97;7.07;;;;;;;6.62;nan;95630.78;5094280;27;20277;-71
2022/10/19 00:45:16;;;;;;;15.85;7.95;;;;;;;6.41;nan;95626.75;5103851;27;20227;-71
2022/10/19 00:47:44;;;;;;;13.43;7.70;;;;;;;6.30;nan;95628.53;5111878;27;20594;-71
2022/10/19 00:50:16;;;;;;;13.07;7.10;;;;;;;6.57;nan;95627.44;5113242;27;20197;-72
2022/10/19 00:52:42;;;;;;;9.30;6.57;;;;;;;6.53;nan;95621.59;5112508;27;20224;-71
2022/10/19 00:55:11;;;;;;;7.47;6.72;;;;;;;6.47;nan;95616.59;5112181;27;20212;-72
2022/10/19 00:57:40;;;;;;;8.15;7.30;;;;;;;6.78;nan;95612.91;5110846;27;20221;-71
2022/10/19 01:00:08;;;;;;;11.45;7.57;;;;;;;6.94;nan;95608.53;5113065;27;20265;-71
2022/10/19 01:02:36;;;;;;;9.23;8.13;;;;;;;6.97;nan;95603.44;5112684;27;21580;-72
2022/10/19 01:05:04;;;;;;;8.95;6.68;;;;;;;6.71;nan;95606.25;5111933;27;22331;-73
2022/10/19 01:07:31;;;;;;;9.93;6.22;;;;;;;6.22;nan;95597.44;5111366;27;20317;-71
2022/10/19 01:09:59;;;;;;;7.05;5.90;;;;;;;5.84;nan;95603.59;5111006;27;20212;-71
2022/10/19 01:12:46;;;;;;;10.07;6.55;;;;;;;5.52;nan;95597.91;5111538;27;20224;-71
2022/10/19 01:15:28;;;;;;;9.02;6.57;;;;;;;5.62;nan;95591.97;5111309;27;20200;-72
2022/10/19 01:18:04;;;;;;;6.97;6.00;;;;;;;5.79;nan;95595.22;5111028;27;20205;-71
2022/10/19 01:21:03;;;;;;;11.88;6.40;;;;;;;5.71;nan;95585.16;5111665;27;21600;-71
2022/10/19 01:24:05;;;;;;;7.05;6.25;;;;;;;5.50;nan;95592.88;5111819;27;20253;-72
2022/10/19 01:26:54;;;;;;;7.30;5.25;;;;;;;5.56;nan;95576.88;5102935;27;20745;-71
2022/10/19 01:29:43;;;;;;;6.35;5.57;;;;;;;5.68;nan;95579.34;5109659;27;20269;-71
2022/10/19 01:32:16;;;;;;;10.85;5.70;;;;;;;6.14;nan;95574.81;5109445;27;20225;-71
2022/10/19 01:34:51;;;;;;;8.30;5.78;;;;;;;6.49;nan;95575.31;5111133;27;21926;-71
2022/10/19 01:37:27;;;;;;;7.20;4.75;;;;;;;6.32;nan;95573.81;5109617;27;20196;-72
2022/10/19 01:39:59;;;;;;;6.70;5.63;;;;;;;6.07;nan;95571.50;5109888;27;20227;-71
2022/10/19 01:42:31;;;;;;;7.65;5.07;;;;;;;5.85;nan;95575.00;5110256;27;20253;-71
2022/10/19 01:45:03;;;;;;;7.93;5.90;;;;;;;5.84;nan;95567.44;5108279;27;20293;-71
2022/10/19 01:47:35;;;;;;;6.20;5.65;;;;;;;5.85;nan;95564.91;5108033;27;20431;-71
2022/10/19 01:50:06;;;;;;;6.28;5.55;;;;;;;5.79;nan;95565.78;5107097;27;20208;-71
2022/10/19 01:52:33;;;;;;;7.00;5.75;;;;;;;5.51;nan;95559.25;5109725;27;20228;-71
2022/10/19 01:55:04;;;;;;;7.88;7.10;;;;;;;5.29;nan;95558.53;5107831;27;20212;-71
2022/10/19 01:57:34;;;;;;;12.82;9.27;;;;;;;5.14;nan;95558.63;5109353;27;20204;-72
2022/10/19 02:00:06;;;;;;;11.63;7.07;;;;;;;5.76;nan;95557.41;5108248;27;20245;-72
2022/10/19 02:02:36;;;;;;;14.95;9.73;;;;;;;5.42;nan;95557.66;5107810;27;20208;-71
2022/10/19 02:05:05;;;;;;;15.10;8.93;;;;;;;5.12;nan;95560.31;5109726;27;20204;-72
2022/10/19 02:07:33;;;;;;;15.18;9.23;;;;;;;4.94;nan;95562.91;5109230;27;20224;-71
2022/10/19 02:10:00;;;;;;;10.88;8.40;;;;;;;5.03;nan;95558.66;5108217;27;20693;-71
2022/10/19 02:12:31;;;;;;;10.80;8.75;;;;;;;5.22;nan;95561.94;5109789;27;20343;-72
2022/10/19 02:15:01;;;;;;;9.50;7.55;;;;;;;5.74;nan;95556.56;5109114;27;20216;-71
2022/10/19 02:17:31;;;;;;;9.35;7.55;;;;;;;5.98;nan;95550.53;5107779;27;20238;-71
2022/10/19 02:20:00;;;;;;;10.98;7.28;;;;;;;6.17;nan;95551.25;5106891;27;20639;-72
2022/10/19 02:22:27;;;;;;;8.57;7.68;;;;;;;6.13;nan;95550.44;5108761;27;20200;-72
2022/10/19 02:24:54;;;;;;;10.18;7.90;;;;;;;5.87;nan;95547.25;5108281;27;20192;-72
2022/10/19 02:27:21;;;;;;;12.98;7.90;;;;;;;5.89;nan;95546.44;5109738;27;20211;-72
2022/10/19 02:29:48;;;;;;;11.50;8.93;;;;;;;5.69;nan;95549.03;5109291;27;20297;-72
2022/10/19 02:32:15;;;;;;;14.73;8.85;;;;;;;5.81;nan;95553.19;5107098;27;20655;-71
2022/10/19 02:34:42;;;;;;;11.75;9.45;;;;;;;5.72;nan;95549.03;5108377;27;20759;-72
2022/10/19 02:37:10;;;;;;;11.65;8.05;;;;;;;5.69;nan;95548.22;5107690;27;20200;-72
2022/10/19 02:39:38;;;;;;;11.98;9.13;;;;;;;6.03;nan;95549.66;5108803;27;20200;-72
2022/10/19 02:42:09;;;;;;;15.18;8.88;;;;;;;6.16;nan;95547.06;5109140;27;20558;-72
2022/10/19 02:44:41;;;;;;;14.20;9.45;;;;;;;6.18;nan;95547.88;5109043;27;20928;-72
2022/10/19 02:47:12;;;;;;;13.40;9.10;;;;;;;6.18;nan;95550.41;5109646;27;20196;-73
2022/10/19 02:49:39;;;;;;;15.70;8.95;;;;;;;6.20;nan;95548.66;5109206;27;20284;-73
2022/10/19 02:52:09;;;;;;;15.20;9.40;;;;;;;6.06;nan;95542.06;5109403;27;20235;-72
2022/10/19 02:54:38;;;;;;;20.50;9.68;;;;;;;5.70;nan;95547.34;5111747;27;20265;-71
2022/10/19 02:57:15;;;;;;;18.98;9.32;;;;;;;5.35;nan;95548.44;5110033;27;20239;-71
2022/10/19 02:59:41;;;;;;;13.63;9.45;;;;;;;5.04;nan;95546.91;5110720;27;20269;-72
2022/10/19 03:02:08;;;;;;;15.50;9.98;;;;;;;5.23;nan;95543.44;5109960;27;20241;-71
2022/10/19 03:04:35;;;;;;;11.27;9.80;;;;;;;5.18;nan;95550.22;5112226;27;20644;-71
2022/10/19 03:07:02;;;;;;;10.43;8.95;;;;;;;5.06;nan;95545.22;5111133;27;20224;-72
2022/10/19 03:09:28;;;;;;;13.57;9.88;;;;;;;4.96;nan;95533.50;5112236;27;20754;-72
2022/10/19 03:11:56;;;;;;;18.92;10.55;;;;;;;5.17;nan;95545.19;5111389;27;20220;-72
2022/10/19 03:14:23;;;;;;;15.13;9.38;;;;;;;5.20;nan;95545.97;5111608;27;20721;-72
2022/10/19 03:16:50;;;;;;;20.02;9.60;;;;;;;5.35;nan;95543.41;5111860;27;20204;-72
2022/10/19 03:19:17;;;;;;;17.13;9.85;;;;;;;5.39;nan;95550.09;5111400;27;20902;-71
2022/10/19 03:21:43;;;;;;;17.60;9.65;;;;;;;5.23;nan;95547.66;5110564;27;20200;-72
2022/10/19 03:24:10;;;;;;;12.80;8.80;;;;;;;5.34;nan;95544.25;5110479;27;20635;-71
2022/10/19 03:26:37;;;;;;;19.65;10.38;;;;;;;5.57;nan;95546.63;5111637;27;20253;-72
2022/10/19 03:29:05;;;;;;;23.15;10.52;;;;;;;5.67;nan;95539.84;5111793;27;20669;-72
2022/10/19 03:31:32;;;;;;;13.38;9.00;;;;;;;5.81;nan;95541.41;5112144;27;20646;-72
2022/10/19 03:33:58;;;;;;;14.98;10.02;;;;;;;6.00;nan;95529.50;5111932;27;20206;-71
2022/10/19 03:36:27;;;;;;;17.27;9.20;;;;;;;5.88;nan;95529.59;5111261;27;20364;-72
2022/10/19 03:38:55;;;;;;;17.70;9.73;;;;;;;5.84;nan;95532.13;5112009;27;20289;-72
2022/10/19 03:41:24;;;;;;;18.67;9.15;;;;;;;5.58;nan;95533.16;5112683;27;20221;-71
2022/10/19 03:43:51;;;;;;;14.45;9.40;;;;;;;5.57;nan;95534.00;5110916;27;20200;-72
2022/10/19 03:46:20;;;;;;;14.25;8.50;;;;;;;5.64;nan;95535.66;5112136;27;20212;-72
2022/10/19 03:48:46;;;;;;;17.40;9.68;;;;;;;5.76;nan;95530.50;5112916;27;20224;-72
2022/10/19 03:51:15;;;;;;;15.60;10.70;;;;;;;5.51;nan;95538.25;5112422;27;20228;-72
2022/10/19 03:53:43;;;;;;;19.42;11.70;;;;;;;5.38;nan;95528.25;5111081;27;20243;-72
2022/10/19 03:56:13;;;;;;;48.03;25.80;;;;;;;5.01;nan;95527.59;5110976;27;20196;-73
2022/10/19 03:58:42;;;;;;;39.03;19.05;;;;;;;4.81;nan;95528.53;5111027;27;20788;-72
2022/10/19 04:01:11;;;;;;;15.23;9.80;;;;;;;5.06;nan;95535.16;5112282;27;20273;-72
2022/10/19 04:03:39;;;;;;;11.85;8.90;;;;;;;5.12;nan;95525.88;5110467;27;20211;-72
2022/10/19 04:06:08;;;;;;;12.98;9.05;;;;;;;5.09;nan;95520.03;5111251;27;20304;-72
2022/10/19 04:08:35;;;;;;;13.38;9.75;;;;;;;5.04;nan;95521.72;5111048;27;20669;-73
2022/10/19 04:11:03;;;;;;;12.93;8.18;;;;;;;4.90;nan;95528.50;5111784;27;20204;-72
2022/10/19 04:13:30;;;;;;;14.27;8.57;;;;;;;4.88;nan;95530.19;5113827;27;20228;-73
2022/10/19 04:15:57;;;;;;;12.95;8.55;;;;;;;4.84;nan;95524.34;5116933;27;20196;-72
2022/10/19 04:18:24;;;;;;;11.95;9.07;;;;;;;4.74;nan;95515.97;5115530;27;20628;-73
2022/10/19 04:20:57;;;;;;;14.57;9.38;;;;;;;4.68;nan;95512.66;5114420;27;20204;-72
2022/10/19 04:23:24;;;;;;;45.28;26.90;;;;;;;4.55;nan;95516.88;5115140;27;20985;-72
2022/10/19 04:25:51;;;;;;;74.97;36.15;;;;;;;4.47;nan;95517.72;5114700;27;20205;-72
2022/10/19 04:28:18;;;;;;;22.77;14.73;;;;;;;4.44;nan;95516.09;5114676;27;20269;-71
2022/10/19 04:30:44;;;;;;;13.75;8.73;;;;;;;4.77;nan;95510.91;5115264;27;20208;-71
2022/10/19 04:33:11;;;;;;;17.13;8.60;;;;;;;4.83;nan;95509.22;5115017;27;20285;-73
2022/10/19 04:35:38;;;;;;;18.63;8.15;;;;;;;4.87;nan;95518.44;5114330;27;20673;-72
2022/10/19 04:38:06;;;;;;;33.40;18.98;;;;;;;5.19;nan;95509.06;5114689;27;20681;-72
2022/10/19 04:40:35;;;;;;;41.45;22.90;;;;;;;5.16;nan;95505.72;5114042;27;20875;-73
2022/10/19 04:43:02;;;;;;;18.90;11.10;;;;;;;5.02;nan;95511.66;5114921;27;20288;-73
2022/10/19 04:45:29;;;;;;;26.63;11.50;;;;;;;5.22;nan;95509.00;5112819;27;20293;-71
2022/10/19 04:47:56;;;;;;;17.70;10.80;;;;;;;5.40;nan;95506.41;5114067;27;20281;-71
2022/10/19 04:50:23;;;;;;;24.13;10.82;;;;;;;5.46;nan;95511.38;5114881;27;20284;-71
2022/10/19 04:52:49;;;;;;;12.57;9.23;;;;;;;5.40;nan;95513.13;5114864;27;20216;-73
2022/10/19 04:55:18;;;;;;;20.13;10.27;;;;;;;5.44;nan;95510.56;5115157;27;20196;-71
2022/10/19 04:57:45;;;;;;;17.48;10.27;;;;;;;5.44;nan;95512.28;5112915;27;20212;-73
2022/10/19 05:00:13;;;;;;;12.85;10.38;;;;;;;5.62;nan;95506.25;5113292;27;20706;-71
2022/10/19 05:02:43;;;;;;;21.95;11.55;;;;;;;5.95;nan;95515.25;5098275;22;20265;-71
2022/10/19 05:05:09;;;;;;;26.77;11.95;;;;;;;6.06;nan;95510.97;5072947;28;20243;-71
2022/10/19 05:07:36;;;;;;;19.25;12.10;;;;;;;5.93;nan;95501.84;5072437;28;20723;-72
2022/10/19 05:10:03;;;;;;;32.30;11.30;;;;;;;5.61;nan;95499.53;5074311;28;20237;-73
2022/10/19 05:12:31;;;;;;;24.80;11.00;;;;;;;5.30;nan;95504.78;5074964;28;20282;-73
2022/10/19 05:14:58;;;;;;;36.63;10.65;;;;;;;5.12;nan;95499.84;5073536;28;20238;-72
2022/10/19 05:17:25;;;;;;;24.50;12.30;;;;;;;5.04;nan;95501.56;5074031;28;20311;-72
2022/10/19 05:19:52;;;;;;;30.25;10.98;;;;;;;5.00;nan;95504.94;5072757;28;20637;-72
2022/10/19 05:22:18;;;;;;;24.02;12.45;;;;;;;4.89;nan;95506.69;5073303;28;20213;-73
2022/10/19 05:24:45;;;;;;;27.23;13.05;;;;;;;5.38;nan;95504.75;5072388;28;20274;-72
2022/10/19 05:27:12;;;;;;;21.23;11.88;;;;;;;5.64;nan;95509.59;5074912;28;20240;-72
2022/10/19 05:29:40;;;;;;;32.38;13.55;;;;;;;5.97;nan;95508.50;5072869;28;20214;-72
2022/10/19 05:32:06;;;;;;;26.23;15.98;;;;;;;6.35;nan;95510.69;5072397;28;20201;-72
2022/10/19 05:34:33;;;;;;;36.45;15.10;;;;;;;6.56;nan;95502.88;5073292;28;20229;-73
2022/10/19 05:37:00;;;;;;;25.42;12.27;;;;;;;6.77;nan;95507.69;5072700;28;20209;-73
2022/10/19 05:39:27;;;;;;;19.10;11.07;;;;;;;6.37;nan;95514.03;5073035;28;20201;-73
2022/10/19 05:41:53;;;;;;;15.25;9.43;;;;;;;6.26;nan;95515.81;5071670;28;20306;-73
2022/10/19 05:44:22;;;;;;;14.70;9.38;;;;;;;6.35;nan;95521.63;5072428;28;20274;-73
2022/10/19 05:46:51;;;;;;;13.80;9.25;;;;;;;6.78;nan;95516.09;5072296;28;20202;-73
2022/10/19 05:49:20;;;;;;;20.92;11.23;;;;;;;7.03;nan;95506.53;5075019;28;20295;-71
2022/10/19 05:51:47;;;;;;;19.90;12.02;;;;;;;7.05;nan;95505.66;5073799;28;20206;-71
2022/10/19 05:54:15;;;;;;;21.98;9.55;;;;;;;7.80;nan;95515.53;5073936;28;20811;-72
2022/10/19 05:56:42;;;;;;;22.75;10.23;;;;;;;8.15;nan;95504.84;5074120;28;20656;-72
2022/10/19 05:59:13;;;;;;;19.67;10.68;;;;;;;8.09;nan;95512.53;5075639;28;20627;-72
2022/10/19 06:01:39;;;;;;;13.20;8.25;;;;;;;8.27;nan;95508.84;5073206;28;20271;-71
2022/10/19 06:04:09;;;;;;;22.83;11.15;;;;;;;9.92;nan;95511.34;5074831;28;20294;-74
2022/10/19 06:06:36;;;;;;;29.73;13.88;;;;;;;12.75;nan;95503.06;5072271;28;20939;-71
2022/10/19 06:09:03;;;;;;;29.55;12.38;;;;;;;14.45;nan;95505.09;5074243;28;20208;-73
2022/10/19 06:11:33;;;;;;;35.88;13.23;;;;;;;14.02;nan;95506.00;5074186;28;20232;-73
2022/10/19 06:14:01;;;;;;;19.05;10.95;;;;;;;12.52;nan;95511.50;5074516;28;20755;-72
2022/10/19 06:16:29;;;;;;;17.73;10.55;;;;;;;11.63;nan;95519.47;5073933;28;20742;-72
2022/10/19 06:18:57;;;;;;;17.73;10.93;;;;;;;11.08;nan;95521.94;5073817;28;20294;-73
2022/10/19 06:21:27;;;;;;;25.83;10.25;;;;;;;11.09;nan;95518.50;5073527;28;20206;-72
2022/10/19 06:23:56;;;;;;;25.15;9.18;;;;;;;11.29;nan;95528.09;5071599;28;20268;-71
2022/10/19 06:26:24;;;;;;;17.23;9.77;;;;;;;10.84;nan;95520.91;5070856;28;20206;-72
2022/10/19 06:28:54;;;;;;;17.42;9.60;;;;;;;10.25;nan;95535.16;5073926;28;20266;-72
2022/10/19 06:31:21;;;;;;;22.10;9.32;;;;;;;9.93;nan;95528.25;5075409;28;20205;-75
2022/10/19 06:33:47;;;;;;;18.50;9.48;;;;;;;9.82;nan;95526.00;5076186;28;20236;-75
2022/10/19 06:36:16;;;;;;;16.27;8.32;;;;;;;9.57;nan;95531.66;5075444;28;20266;-75
2022/10/19 06:38:44;;;;;;;24.73;9.95;;;;;;;9.84;nan;95533.56;5074352;28;20606;-75
2022/10/19 06:41:12;;;;;;;17.23;10.02;;;;;;;9.65;nan;95532.34;5074688;28;20213;-75
2022/10/19 06:43:39;;;;;;;22.80;9.10;;;;;;;9.45;nan;95533.59;5074529;28;20913;-75
2022/10/19 06:46:07;;;;;;;22.17;10.95;;;;;;;9.57;nan;95529.13;5075459;28;20217;-75
2022/10/19 06:48:34;;;;;;;23.17;10.07;;;;;;;9.70;nan;95516.09;5073801;28;20707;-75
2022/10/19 06:51:03;;;;;;;19.27;9.85;;;;;;;9.69;nan;95508.53;5073591;28;20258;-75
2022/10/19 06:53:33;;;;;;;24.38;11.40;;;;;;;9.48;nan;95514.91;5074242;28;20233;-75
2022/10/19 06:56:03;;;;;;;17.95;10.73;;;;;;;9.55;nan;95507.16;5072363;28;20223;-75
2022/10/19 06:58:30;;;;;;;28.38;10.45;;;;;;;9.55;nan;95497.00;5073146;28;20206;-75
2022/10/19 07:00:57;;;;;;;20.35;11.45;;;;;;;9.65;nan;95497.59;5074093;28;20201;-75
2022/10/19 07:03:24;;;;;;;27.42;13.93;;;;;;;9.96;nan;95496.88;5072402;28;20244;-75
2022/10/19 07:05:55;;;;;;;53.67;21.38;;;;;;;10.41;nan;95494.94;5073179;28;20205;-74
2022/10/19 07:08:22;;;;;;;30.48;13.13;;;;;;;10.54;nan;95486.13;5073662;28;20366;-75
2022/10/19 07:10:50;;;;;;;26.13;13.00;;;;;;;10.45;nan;95496.53;5072402;28;20206;-75
2022/10/19 07:13:18;;;;;;;26.95;14.95;;;;;;;10.22;nan;95489.50;5073128;28;20225;-75
2022/10/19 07:15:45;;;;;;;37.63;12.95;;;;;;;10.38;nan;95497.56;5073694;28;20945;-75
2022/10/19 07:18:12;;;;;;;19.88;12.40;;;;;;;10.62;nan;95494.41;5072745;28;20206;-75
2022/10/19 07:20:39;;;;;;;24.08;11.68;;;;;;;10.74;nan;95494.03;5071233;28;20535;-75
2022/10/19 07:23:06;;;;;;;19.83;10.82;;;;;;;10.93;nan;95488.44;5071282;28;20743;-74
2022/10/19 07:25:33;;;;;;;28.40;12.50;;;;;;;10.86;nan;95491.19;5071592;28;20569;-74
2022/10/19 07:28:00;;;;;;;23.45;11.25;;;;;;;10.65;nan;95488.38;5071870;28;20214;-74
2022/10/19 07:30:28;;;;;;;31.30;14.68;;;;;;;11.33;nan;95488.97;5073149;28;20683;-76
2022/10/19 07:32:55;;;;;;;26.55;15.13;;;;;;;12.07;nan;95483.28;5072909;28;20210;-76
2022/10/19 07:35:21;;;;;;;31.38;16.13;;;;;;;12.57;nan;95479.03;5073073;28;20209;-74
2022/10/19 07:37:48;;;;;;;36.85;17.13;;;;;;;13.99;nan;95476.28;5071840;28;20962;-75
2022/10/19 07:40:15;;;;;;;35.42;17.13;;;;;;;16.02;nan;95457.91;5073053;28;20205;-75
2022/10/19 07:42:42;;;;;;;43.38;19.45;;;;;;;16.42;nan;95456.75;5075281;28;20213;-75
2022/10/19 07:45:09;;;;;;;34.15;19.45;;;;;;;16.76;nan;95448.22;5072531;28;20263;-77
2022/10/19 07:47:37;;;;;;;37.47;19.85;;;;;;;18.44;nan;95444.13;5072214;28;20664;-77
2022/10/19 07:50:04;;;;;;;43.40;20.48;;;;;;;20.46;nan;95430.69;5075608;28;20278;-77
2022/10/19 07:52:32;;;;;;;28.00;18.48;;;;;;;21.71;nan;95431.44;5075754;28;20228;-76
2022/10/19 07:54:59;;;;;;;35.00;16.67;;;;;;;22.30;nan;95423.69;5076031;28;20228;-77
2022/10/19 07:57:27;;;;;;;25.88;14.65;;;;;;;23.83;nan;95417.94;5076983;28;20233;-77
2022/10/19 07:59:54;;;;;;;23.67;15.05;;;;;;;25.55;nan;95419.09;5076894;28;20368;-77
2022/10/19 08:02:20;;;;;;;26.38;15.07;;;;;;;26.96;nan;95408.13;5075228;28;20237;-76
2022/10/19 08:04:48;;;;;;;29.08;14.52;;;;;;;28.31;nan;95411.75;5077353;28;20193;-77
2022/10/19 08:07:15;;;;;;;18.42;12.50;;;;;;;29.54;nan;95399.25;5077172;28;20248;-78
2022/10/19 08:09:42;;;;;;;21.83;13.68;;;;;;;30.58;nan;95399.56;5077097;28;20210;-80
2022/10/19 08:12:09;;;;;;;19.55;11.15;;;;;;;29.95;nan;95401.94;5076928;28;20202;-77
2022/10/19 08:14:36;;;;;;;21.15;11.55;;;;;;;30.19;nan;95399.38;5078325;28;20614;-77
2022/10/19 08:17:03;;;;;;;17.88;10.93;;;;;;;29.79;nan;95402.75;5077574;28;20189;-73
2022/10/19 08:19:30;;;;;;;12.90;10.00;;;;;;;30.22;nan;95396.44;5077021;28;20645;-75
2022/10/19 08:21:58;;;;;;;12.20;10.65;;;;;;;30.19;nan;95396.75;5076643;28;20298;-74
2022/10/19 08:24:25;;;;;;;14.38;10.05;;;;;;;30.82;nan;95390.00;5076469;28;20202;-75
2022/10/19 08:26:51;;;;;;;15.80;10.02;;;;;;;30.92;nan;95386.22;5076249;28;20205;-75
2022/10/19 08:29:20;;;;;;;12.73;9.88;;;;;;;31.00;nan;95383.56;5076693;28;20744;-74
2022/10/19 08:31:48;;;;;;;18.17;10.10;;;;;;;30.88;nan;95386.72;5077006;28;20263;-74
2022/10/19 08:34:15;;;;;;;16.67;9.32;;;;;;;30.96;nan;95384.06;5077348;28;20799;-74
2022/10/19 08:36:43;;;;;;;13.00;8.52;;;;;;;31.15;nan;95381.09;5076499;28;20206;-75
2022/10/19 08:39:12;;;;;;;11.88;9.65;;;;;;;32.21;nan;95378.72;5076837;28;20259;-73
2022/10/19 08:41:53;;;;;;;11.93;8.55;;;;;;;33.72;nan;95374.81;5074816;28;20661;-74
2022/10/19 08:44:41;;;;;;;13.10;7.95;;;;;;;32.08;nan;95373.22;5075871;28;20253;-73
2022/10/19 08:47:20;;;;;;;7.68;7.05;;;;;;;32.22;nan;95375.09;5075846;28;20205;-73
2022/10/19 08:49:47;;;;;;;16.63;7.90;;;;;;;31.19;nan;95371.88;5075772;28;20588;-73
2022/10/19 08:52:21;;;;;;;8.57;5.93;;;;;;;30.57;nan;95370.88;5076407;28;20205;-73
2022/10/19 08:54:53;;;;;;;10.32;6.03;;;;;;;29.93;nan;95362.81;5076595;28;20224;-76
2022/10/19 08:57:33;;;;;;;9.73;7.00;;;;;;;30.65;nan;95368.25;5074274;28;20662;-74
2022/10/19 09:00:06;;;;;;;11.13;5.90;;;;;;;29.18;nan;95355.91;5074378;28;20258;-75
2022/10/19 09:02:53;;;;;;;6.95;5.25;;;;;;;28.90;nan;95366.56;5075852;28;20230;-75
2022/10/19 09:05:30;;;;;;;6.75;4.88;;;;;;;27.47;nan;95357.19;5075233;28;20287;-73
2022/10/19 09:07:57;;;;;;;7.05;4.22;;;;;;;27.60;nan;95352.47;5075574;28;20919;-74
2022/10/19 09:10:30;;;;;;;6.50;4.95;;;;;;;27.85;nan;95350.91;5077021;28;20231;-76
2022/10/19 09:13:00;;;;;;;5.25;4.70;;;;;;;27.49;nan;95360.47;5077614;28;20494;-72
2022/10/19 09:18:20;;;;;;;5.00;4.05;;;;;;;27.72;nan;95348.66;5078604;28;20236;-73
2022/10/19 09:20:49;;;;;;;11.32;5.25;;;;;;;27.41;nan;95349.97;5078128;28;20205;-73
2022/10/19 09:23:26;;;;;;;8.57;4.10;;;;;;;25.75;nan;95349.69;5074608;28;20711;-73
2022/10/19 09:25:58;;;;;;;4.30;3.53;;;;;;;25.93;nan;95347.25;5077121;28;20212;-73
2022/10/19 09:28:43;;;;;;;12.60;4.55;;;;;;;25.75;nan;95350.50;5074956;28;20209;-72
2022/10/19 09:31:15;;;;;;;4.43;4.03;;;;;;;25.51;nan;95339.63;5075604;28;20675;-72
2022/10/19 09:33:43;;;;;;;5.85;3.88;;;;;;;24.26;nan;95345.19;5075138;28;20695;-73
2022/10/19 09:36:10;;;;;;;6.75;4.05;;;;;;;23.07;nan;95357.38;5073778;28;20202;-73
2022/10/19 09:38:37;;;;;;;4.05;3.45;;;;;;;22.58;nan;95360.28;5074881;28;20210;-72
2022/10/19 09:41:20;;;;;;;8.30;4.00;;;;;;;22.36;nan;95355.91;5075847;28;20329;-70
2022/10/19 09:43:52;;;;;;;12.20;4.43;;;;;;;22.25;nan;95349.91;5075749;28;20205;-73
2022/10/19 09:46:33;;;;;;;6.00;4.20;;;;;;;21.60;nan;95348.59;5074360;28;20225;-74
2022/10/19 09:49:01;;;;;;;8.55;4.28;;;;;;;20.77;nan;95355.38;5075593;28;20202;-74
2022/10/19 09:51:39;;;;;;;5.55;3.47;;;;;;;20.05;nan;95356.78;5076092;28;20208;-75
2022/10/19 09:54:06;;;;;;;8.32;3.55;;;;;;;19.78;nan;95359.44;5073519;28;20731;-75
2022/10/19 09:56:39;;;;;;;4.10;3.80;;;;;;;19.55;nan;95358.31;5074456;28;20201;-75
2022/10/19 09:59:21;;;;;;;3.83;3.53;;;;;;;19.48;nan;95353.63;5075041;28;20695;-74
2022/10/19 10:02:01;;;;;;;6.20;3.90;;;;;;;19.64;nan;95339.69;5072924;28;20241;-75
2022/10/19 10:04:29;;;;;;;9.93;4.25;;;;;;;19.81;nan;95338.56;5075457;28;20666;-75
2022/10/19 10:06:56;;;;;;;5.35;3.58;;;;;;;19.81;nan;95333.41;5075171;28;20639;-75
2022/10/19 10:09:26;;;;;;;5.47;3.75;;;;;;;19.84;nan;95329.81;5075871;28;20205;-77
2022/10/19 10:11:57;;;;;;;5.25;3.50;;;;;;;19.91;nan;95325.91;5073886;28;20217;-75
2022/10/19 10:14:27;;;;;;;4.45;4.05;;;;;;;19.87;nan;95321.88;5074048;28;20285;-75
2022/10/19 10:16:58;;;;;;;6.35;4.32;;;;;;;19.76;nan;95321.78;5073443;28;20205;-73
2022/10/19 10:19:28;;;;;;;7.32;3.85;;;;;;;19.75;nan;95322.69;5075064;28;20202;-74
2022/10/19 10:21:56;;;;;;;4.35;3.88;;;;;;;19.61;nan;95308.94;5073788;28;20320;-75
2022/10/19 10:24:24;;;;;;;6.93;4.65;;;;;;;19.71;nan;95311.75;5074978;28;20209;-75
2022/10/19 10:26:54;;;;;;;8.15;3.80;;;;;;;19.76;nan;95314.03;5074914;28;20205;-75
2022/10/19 10:29:23;;;;;;;4.18;3.53;;;;;;;19.63;nan;95285.63;5073897;28;20257;-77
2022/10/19 10:31:52;;;;;;;8.45;3.45;;;;;;;19.59;nan;95291.91;5074012;28;20205;-74
2022/10/19 10:34:30;;;;;;;10.52;3.95;;;;;;;19.67;nan;95281.94;5073730;28;20668;-73
2022/10/19 10:36:58;;;;;;;12.07;3.85;;;;;;;19.64;nan;95279.56;5072476;28;20672;-75
2022/10/19 10:39:27;;;;;;;6.78;3.83;;;;;;;19.72;nan;95281.66;5073758;28;20636;-75
2022/10/19 10:41:57;;;;;;;3.60;3.30;;;;;;;19.83;nan;95274.00;5072694;28;20682;-75
2022/10/19 10:44:29;;;;;;;3.75;3.15;;;;;;;19.95;nan;95279.19;5072954;28;20198;-74
2022/10/19 10:46:58;;;;;;;6.03;3.45;;;;;;;20.02;nan;95264.13;5074526;28;20772;-75
2022/10/19 10:49:28;;;;;;;6.65;3.47;;;;;;;20.02;nan;95271.88;5072661;28;20217;-75
2022/10/19 10:51:57;;;;;;;8.10;3.60;;;;;;;19.97;nan;95266.19;5047756;28;20691;-74
2022/10/19 10:54:25;;;;;;;3.88;3.25;;;;;;;20.05;nan;95264.72;5074419;28;20272;-73
2022/10/19 10:57:10;;;;;;;6.50;2.72;;;;;;;20.11;nan;95257.50;5072325;28;20206;-73
2022/10/19 10:59:47;;;;;;;3.78;3.47;;;;;;;20.01;nan;95254.75;5071905;28;20209;-74
2022/10/19 11:02:24;;;;;;;3.78;2.58;;;;;;;20.03;nan;95245.16;5074190;28;20333;-75
2022/10/19 11:04:54;;;;;;;7.13;3.05;;;;;;;20.01;nan;95245.25;5074405;28;20294;-75
2022/10/19 11:07:24;;;;;;;8.20;3.08;;;;;;;20.05;nan;95243.25;5073863;28;20222;-74
2022/10/19 11:09:54;;;;;;;3.33;3.05;;;;;;;20.06;nan;95239.75;5071724;28;20202;-74
2022/10/19 11:12:32;;;;;;;5.07;2.75;;;;;;;20.10;nan;95241.19;5073887;28;20209;-74
2022/10/19 11:15:06;;;;;;;3.83;3.47;;;;;;;20.15;nan;95233.97;5074424;28;21483;-75
2022/10/19 11:17:37;;;;;;;7.47;3.33;;;;;;;20.32;nan;95232.81;5072481;28;20206;-74
2022/10/19 11:20:06;;;;;;;7.65;3.35;;;;;;;20.42;nan;95227.88;5073569;28;20205;-73
2022/10/19 11:22:38;;;;;;;6.93;3.22;;;;;;;20.16;nan;95234.81;5071580;28;20201;-75
2022/10/19 11:25:35;;;;;;;14.00;3.75;;;;;;;19.94;nan;95231.09;5073873;28;20499;-76
2022/10/19 11:28:19;;;;;;;3.72;3.30;;;;;;;19.99;nan;95220.47;5059434;28;20250;-75
2022/10/19 11:30:56;;;;;;;4.72;3.47;;;;;;;20.05;nan;95220.88;5073229;28;20275;-75
2022/10/19 11:33:38;;;;;;;6.20;3.00;;;;;;;20.00;nan;95210.06;5073095;28;20209;-74
2022/10/19 11:36:15;;;;;;;9.77;3.70;;;;;;;20.04;nan;95208.91;5055399;28;20233;-74
2022/10/19 11:38:55;;;;;;;5.28;2.85;;;;;;;20.03;nan;95204.69;5072307;28;20701;-74
2022/10/19 11:41:29;;;;;;;3.33;3.00;;;;;;;20.07;nan;95205.28;5072929;28;20247;-74
2022/10/19 11:44:14;;;;;;;3.85;3.15;;;;;;;20.16;nan;95209.81;5071492;28;21039;-74
2022/10/19 11:46:54;;;;;;;5.00;3.13;;;;;;;20.20;nan;95205.28;5071003;28;20727;-74
2022/10/19 11:49:36;;;;;;;5.22;3.80;;;;;;;20.20;nan;95195.78;5073094;28;20212;-74
2022/10/19 11:52:12;;;;;;;5.88;3.22;;;;;;;20.17;nan;95196.00;5072523;28;20206;-74
2022/10/19 11:54:49;;;;;;;3.17;2.97;;;;;;;20.30;nan;95186.44;5072434;28;20219;-74
2022/10/19 11:57:20;;;;;;;6.15;3.72;;;;;;;20.31;nan;95182.94;5072830;28;20209;-74
2022/10/19 12:00:01;;;;;;;3.00;2.72;;;;;;;20.39;nan;95182.44;5070821;28;20206;-74
2022/10/19 12:02:59;;;;;;;9.95;3.50;;;;;;;20.31;nan;95177.78;5071545;28;20233;-75